sensor_id;sensor_type;location;lat;lon;timestamp;pressure;altitude;pressure_sealevel;temperature;humidity
43450;BME280;29041;42.266;23.110;2022-12-29T00:01:13;96740.25;;;5.23;95.58
43450;BME280;29041;42.266;23.110;2022-12-29T00:04:01;96737.03;;;5.21;94.79
43450;BME280;29041;42.266;23.110;2022-12-29T00:06:49;96741.06;;;5.34;94.81
43450;BME280;29041;42.266;23.110;2022-12-29T00:09:36;96736.75;;;5.17;94.43
43450;BME280;29041;42.266;23.110;2022-12-29T00:12:23;96734.09;;;5.12;94.85
43450;BME280;29041;42.266;23.110;2022-12-29T00:15:12;96733.06;;;5.34;93.54
43450;BME280;29041;42.266;23.110;2022-12-29T00:18:17;96733.84;;;5.34;94.26
43450;BME280;29041;42.266;23.110;2022-12-29T00:21:04;96728.25;;;5.26;93.88
43450;BME280;29041;42.266;23.110;2022-12-29T00:24:12;96720.28;;;5.36;93.51
43450;BME280;29041;42.266;23.110;2022-12-29T00:27:22;96727.75;;;5.29;94.69
43450;BME280;29041;42.266;23.110;2022-12-29T00:30:27;96724.84;;;5.46;93.42
43450;BME280;29041;42.266;23.110;2022-12-29T00:33:34;96730.41;;;5.39;92.93
43450;BME280;29041;42.266;23.110;2022-12-29T00:36:40;96729.06;;;5.42;93.02
43450;BME280;29041;42.266;23.110;2022-12-29T00:39:30;96733.84;;;5.24;93.90
43450;BME280;29041;42.266;23.110;2022-12-29T00:42:35;96732.25;;;5.23;94.00
43450;BME280;29041;42.266;23.110;2022-12-29T00:45:40;96725.59;;;5.20;94.32
43450;BME280;29041;42.266;23.110;2022-12-29T00:48:27;96739.91;;;4.99;95.11
43450;BME280;29041;42.266;23.110;2022-12-29T00:51:33;96734.59;;;5.04;95.57
43450;BME280;29041;42.266;23.110;2022-12-29T00:54:20;96731.81;;;4.73;97.01
43450;BME280;29041;42.266;23.110;2022-12-29T00:57:09;96730.06;;;4.99;95.88
43450;BME280;29041;42.266;23.110;2022-12-29T00:59:57;96737.25;;;4.99;95.61
43450;BME280;29041;42.266;23.110;2022-12-29T01:02:45;96731.09;;;4.98;95.70
43450;BME280;29041;42.266;23.110;2022-12-29T01:05:35;96728.88;;;4.69;96.82
43450;BME280;29041;42.266;23.110;2022-12-29T01:08:24;96722.03;;;4.89;96.22
43450;BME280;29041;42.266;23.110;2022-12-29T01:11:14;96731.88;;;4.93;96.37
43450;BME280;29041;42.266;23.110;2022-12-29T01:14:00;96719.41;;;4.94;95.74
43450;BME280;29041;42.266;23.110;2022-12-29T01:16:49;96717.53;;;5.00;95.62
43450;BME280;29041;42.266;23.110;2022-12-29T01:19:39;96710.53;;;4.68;97.12
43450;BME280;29041;42.266;23.110;2022-12-29T01:22:29;96715.59;;;4.74;97.34
43450;BME280;29041;42.266;23.110;2022-12-29T01:25:17;96703.59;;;4.67;97.98
43450;BME280;29041;42.266;23.110;2022-12-29T01:28:04;96708.72;;;4.84;97.40
43450;BME280;29041;42.266;23.110;2022-12-29T01:30:52;96707.09;;;4.72;98.17
43450;BME280;29041;42.266;23.110;2022-12-29T01:33:39;96709.72;;;4.67;98.29
43450;BME280;29041;42.266;23.110;2022-12-29T01:36:26;96710.22;;;4.59;99.22
43450;BME280;29041;42.266;23.110;2022-12-29T01:39:14;96714.94;;;4.47;100.00
43450;BME280;29041;42.266;23.110;2022-12-29T01:42:02;96710.41;;;4.47;100.00
43450;BME280;29041;42.266;23.110;2022-12-29T01:44:55;96701.16;;;4.55;99.97
43450;BME280;29041;42.266;23.110;2022-12-29T01:47:44;96705.09;;;4.42;100.00
43450;BME280;29041;42.266;23.110;2022-12-29T01:50:33;96696.81;;;4.38;100.00
43450;BME280;29041;42.266;23.110;2022-12-29T01:53:26;96699.25;;;4.45;100.00
43450;BME280;29041;42.266;23.110;2022-12-29T01:56:17;96693.38;;;4.38;100.00
43450;BME280;29041;42.266;23.110;2022-12-29T01:59:10;96696.63;;;4.55;99.91
43450;BME280;29041;42.266;23.110;2022-12-29T02:01:59;96690.47;;;4.44;100.00
43450;BME280;29041;42.266;23.110;2022-12-29T02:04:47;96684.16;;;4.56;100.00
43450;BME280;29041;42.266;23.110;2022-12-29T02:07:34;96688.06;;;4.43;100.00
43450;BME280;29041;42.266;23.110;2022-12-29T02:10:24;96684.22;;;4.76;100.00
43450;BME280;29041;42.266;23.110;2022-12-29T02:13:15;96683.66;;;4.64;99.96
43450;BME280;29041;42.266;23.110;2022-12-29T02:16:13;96688.69;;;4.60;100.00
43450;BME280;29041;42.266;23.110;2022-12-29T02:19:39;96694.78;;;4.61;100.00
43450;BME280;29041;42.266;23.110;2022-12-29T02:22:35;96678.38;;;4.80;99.11
43450;BME280;29041;42.266;23.110;2022-12-29T02:29:06;96684.94;;;4.56;100.00
43450;BME280;29041;42.266;23.110;2022-12-29T02:32:01;96690.22;;;4.46;100.00
43450;BME280;29041;42.266;23.110;2022-12-29T02:34:58;96690.88;;;4.84;99.85
43450;BME280;29041;42.266;23.110;2022-12-29T02:37:54;96684.16;;;4.66;100.00
43450;BME280;29041;42.266;23.110;2022-12-29T02:40:48;96681.28;;;4.73;100.00
43450;BME280;29041;42.266;23.110;2022-12-29T02:43:41;96695.75;;;5.18;98.70
43450;BME280;29041;42.266;23.110;2022-12-29T02:46:35;96693.81;;;4.88;98.52
43450;BME280;29041;42.266;23.110;2022-12-29T02:49:33;96696.44;;;4.72;99.25
43450;BME280;29041;42.266;23.110;2022-12-29T02:52:26;96696.50;;;4.93;98.55
43450;BME280;29041;42.266;23.110;2022-12-29T02:55:14;96696.63;;;4.50;99.86
43450;BME280;29041;42.266;23.110;2022-12-29T02:58:16;96682.19;;;4.36;100.00
43450;BME280;29041;42.266;23.110;2022-12-29T03:01:16;96677.94;;;4.40;100.00
43450;BME280;29041;42.266;23.110;2022-12-29T03:04:21;96682.47;;;4.39;100.00
43450;BME280;29041;42.266;23.110;2022-12-29T03:07:21;96678.41;;;4.21;100.00
43450;BME280;29041;42.266;23.110;2022-12-29T03:10:17;96659.78;;;4.21;100.00
43450;BME280;29041;42.266;23.110;2022-12-29T03:13:19;96673.63;;;4.23;100.00
43450;BME280;29041;42.266;23.110;2022-12-29T03:16:32;96665.97;;;4.32;100.00
43450;BME280;29041;42.266;23.110;2022-12-29T03:19:26;96654.75;;;4.25;100.00
43450;BME280;29041;42.266;23.110;2022-12-29T03:22:21;96660.06;;;4.25;100.00
43450;BME280;29041;42.266;23.110;2022-12-29T03:25:20;96653.66;;;4.21;100.00
43450;BME280;29041;42.266;23.110;2022-12-29T03:28:11;96659.97;;;4.04;100.00
43450;BME280;29041;42.266;23.110;2022-12-29T03:30:59;96648.13;;;4.22;100.00
43450;BME280;29041;42.266;23.110;2022-12-29T03:33:50;96655.19;;;4.65;99.17
43450;BME280;29041;42.266;23.110;2022-12-29T03:36:47;96664.47;;;4.04;100.00
43450;BME280;29041;42.266;23.110;2022-12-29T03:39:37;96668.34;;;3.86;100.00
43450;BME280;29041;42.266;23.110;2022-12-29T03:42:27;96672.19;;;3.62;100.00
43450;BME280;29041;42.266;23.110;2022-12-29T03:45:18;96672.47;;;3.66;100.00
43450;BME280;29041;42.266;23.110;2022-12-29T03:48:06;96684.09;;;3.92;100.00
43450;BME280;29041;42.266;23.110;2022-12-29T03:50:53;96690.16;;;3.88;100.00
43450;BME280;29041;42.266;23.110;2022-12-29T03:53:40;96693.03;;;3.81;100.00
43450;BME280;29041;42.266;23.110;2022-12-29T03:56:29;96694.44;;;4.37;100.00
43450;BME280;29041;42.266;23.110;2022-12-29T03:59:16;96707.53;;;4.01;100.00
43450;BME280;29041;42.266;23.110;2022-12-29T04:02:03;96700.31;;;3.96;100.00
43450;BME280;29041;42.266;23.110;2022-12-29T04:04:50;96700.75;;;3.83;100.00
43450;BME280;29041;42.266;23.110;2022-12-29T04:07:37;96693.22;;;4.12;100.00
43450;BME280;29041;42.266;23.110;2022-12-29T04:10:24;96701.38;;;4.48;100.00
43450;BME280;29041;42.266;23.110;2022-12-29T04:13:13;96699.75;;;4.42;99.78
43450;BME280;29041;42.266;23.110;2022-12-29T04:16:00;96695.00;;;4.44;100.00
43450;BME280;29041;42.266;23.110;2022-12-29T04:18:48;96714.22;;;4.62;98.87
43450;BME280;29041;42.266;23.110;2022-12-29T04:21:35;96704.69;;;4.12;100.00
43450;BME280;29041;42.266;23.110;2022-12-29T04:24:24;96705.75;;;4.17;100.00
43450;BME280;29041;42.266;23.110;2022-12-29T04:27:16;96705.06;;;4.37;100.00
43450;BME280;29041;42.266;23.110;2022-12-29T04:30:06;96705.44;;;4.61;98.27
43450;BME280;29041;42.266;23.110;2022-12-29T04:32:53;96715.59;;;4.16;100.00
43450;BME280;29041;42.266;23.110;2022-12-29T04:35:42;96716.59;;;4.10;100.00
43450;BME280;29041;42.266;23.110;2022-12-29T04:38:29;96715.78;;;4.04;100.00
43450;BME280;29041;42.266;23.110;2022-12-29T04:41:16;96712.59;;;4.07;100.00
43450;BME280;29041;42.266;23.110;2022-12-29T04:44:03;96711.53;;;4.08;100.00
43450;BME280;29041;42.266;23.110;2022-12-29T04:46:52;96709.34;;;3.95;100.00
43450;BME280;29041;42.266;23.110;2022-12-29T04:49:39;96714.38;;;3.91;100.00
43450;BME280;29041;42.266;23.110;2022-12-29T04:52:26;96698.13;;;3.88;100.00
43450;BME280;29041;42.266;23.110;2022-12-29T04:55:14;96712.28;;;3.99;100.00
43450;BME280;29041;42.266;23.110;2022-12-29T04:58:01;96708.84;;;4.46;100.00
43450;BME280;29041;42.266;23.110;2022-12-29T05:00:48;96714.72;;;4.53;100.00
43450;BME280;29041;42.266;23.110;2022-12-29T05:03:36;96716.94;;;4.24;100.00
43450;BME280;29041;42.266;23.110;2022-12-29T05:06:24;96725.38;;;4.58;99.97
43450;BME280;29041;42.266;23.110;2022-12-29T05:09:11;96723.69;;;4.42;100.00
43450;BME280;29041;42.266;23.110;2022-12-29T05:11:58;96731.84;;;4.20;100.00
43450;BME280;29041;42.266;23.110;2022-12-29T05:14:46;96732.88;;;4.19;100.00
43450;BME280;29041;42.266;23.110;2022-12-29T05:17:33;96723.50;;;4.11;100.00
43450;BME280;29041;42.266;23.110;2022-12-29T05:20:22;96730.38;;;4.02;100.00
43450;BME280;29041;42.266;23.110;2022-12-29T05:23:09;96737.28;;;4.03;100.00
43450;BME280;29041;42.266;23.110;2022-12-29T05:25:56;96729.50;;;3.91;100.00
43450;BME280;29041;42.266;23.110;2022-12-29T05:28:44;96739.34;;;3.95;100.00
43450;BME280;29041;42.266;23.110;2022-12-29T05:31:31;96734.69;;;4.08;100.00
43450;BME280;29041;42.266;23.110;2022-12-29T05:34:18;96734.88;;;4.39;100.00
43450;BME280;29041;42.266;23.110;2022-12-29T05:37:07;96730.88;;;4.41;99.63
43450;BME280;29041;42.266;23.110;2022-12-29T05:39:54;96723.69;;;3.94;100.00
43450;BME280;29041;42.266;23.110;2022-12-29T05:42:41;96732.25;;;4.06;100.00
43450;BME280;29041;42.266;23.110;2022-12-29T05:45:28;96733.06;;;4.07;100.00
43450;BME280;29041;42.266;23.110;2022-12-29T05:48:15;96741.66;;;4.19;100.00
43450;BME280;29041;42.266;23.110;2022-12-29T05:51:03;96733.41;;;3.78;100.00
43450;BME280;29041;42.266;23.110;2022-12-29T05:53:51;96734.88;;;4.01;100.00
43450;BME280;29041;42.266;23.110;2022-12-29T05:56:38;96732.75;;;3.65;100.00
43450;BME280;29041;42.266;23.110;2022-12-29T05:59:25;96737.72;;;3.57;100.00
43450;BME280;29041;42.266;23.110;2022-12-29T06:02:12;96737.47;;;3.58;100.00
43450;BME280;29041;42.266;23.110;2022-12-29T06:04:59;96736.94;;;3.56;100.00
43450;BME280;29041;42.266;23.110;2022-12-29T06:07:47;96737.88;;;3.77;100.00
43450;BME280;29041;42.266;23.110;2022-12-29T06:10:35;96742.78;;;3.58;100.00
43450;BME280;29041;42.266;23.110;2022-12-29T06:13:23;96751.84;;;3.62;100.00
43450;BME280;29041;42.266;23.110;2022-12-29T06:16:10;96753.47;;;3.63;100.00
43450;BME280;29041;42.266;23.110;2022-12-29T06:18:57;96748.94;;;3.64;100.00
43450;BME280;29041;42.266;23.110;2022-12-29T06:21:45;96757.88;;;3.85;100.00
43450;BME280;29041;42.266;23.110;2022-12-29T06:24:33;96756.44;;;4.05;100.00
43450;BME280;29041;42.266;23.110;2022-12-29T06:27:22;96758.25;;;3.99;100.00
43450;BME280;29041;42.266;23.110;2022-12-29T06:30:11;96764.75;;;3.81;100.00
43450;BME280;29041;42.266;23.110;2022-12-29T06:33:03;96763.81;;;3.65;100.00
43450;BME280;29041;42.266;23.110;2022-12-29T06:35:56;96757.97;;;3.63;100.00
43450;BME280;29041;42.266;23.110;2022-12-29T06:38:43;96752.47;;;3.75;100.00
43450;BME280;29041;42.266;23.110;2022-12-29T06:41:30;96767.47;;;3.86;100.00
43450;BME280;29041;42.266;23.110;2022-12-29T06:44:19;96757.47;;;3.66;100.00
43450;BME280;29041;42.266;23.110;2022-12-29T06:47:09;96767.47;;;3.86;100.00
43450;BME280;29041;42.266;23.110;2022-12-29T06:49:56;96770.84;;;4.14;100.00
43450;BME280;29041;42.266;23.110;2022-12-29T06:52:43;96770.44;;;4.33;100.00
43450;BME280;29041;42.266;23.110;2022-12-29T06:55:30;96773.72;;;4.50;100.00
43450;BME280;29041;42.266;23.110;2022-12-29T06:58:17;96775.78;;;4.86;100.00
43450;BME280;29041;42.266;23.110;2022-12-29T07:01:16;96778.91;;;5.62;96.56
43450;BME280;29041;42.266;23.110;2022-12-29T07:04:03;96785.72;;;8.56;82.22
43450;BME280;29041;42.266;23.110;2022-12-29T07:06:50;96784.47;;;10.63;71.29
43450;BME280;29041;42.266;23.110;2022-12-29T07:09:38;96791.22;;;10.75;69.40
43450;BME280;29041;42.266;23.110;2022-12-29T07:12:25;96785.94;;;11.76;66.52
43450;BME280;29041;42.266;23.110;2022-12-29T07:15:12;96784.13;;;11.35;66.47
43450;BME280;29041;42.266;23.110;2022-12-29T07:18:01;96785.31;;;11.79;64.96
43450;BME280;29041;42.266;23.110;2022-12-29T07:20:49;96780.59;;;13.42;61.53
43450;BME280;29041;42.266;23.110;2022-12-29T07:23:40;96782.88;;;12.37;62.74
43450;BME280;29041;42.266;23.110;2022-12-29T07:26:27;96780.50;;;12.67;61.41
43450;BME280;29041;42.266;23.110;2022-12-29T10:13:10;96690.16;;;13.27;63.34
43450;BME280;29041;42.266;23.110;2022-12-29T10:16:17;96687.13;;;13.29;62.92
43450;BME280;29041;42.266;23.110;2022-12-29T10:19:33;96686.34;;;13.46;62.76
43450;BME280;29041;42.266;23.110;2022-12-29T10:23:03;96651.84;;;14.04;60.15
43450;BME280;29041;42.266;23.110;2022-12-29T10:26:14;96662.06;;;13.63;61.36
43450;BME280;29041;42.266;23.110;2022-12-29T11:55:16;96587.13;;;15.40;58.51
43450;BME280;29041;42.266;23.110;2022-12-29T11:58:06;96583.94;;;15.71;57.09
43450;BME280;29041;42.266;23.110;2022-12-29T12:03:30;96570.50;;;15.75;56.82
43450;BME280;29041;42.266;23.110;2022-12-29T12:06:20;96562.69;;;16.57;54.52
43450;BME280;29041;42.266;23.110;2022-12-29T12:09:15;96571.28;;;15.97;57.08
43450;BME280;29041;42.266;23.110;2022-12-29T12:12:07;96565.44;;;16.85;53.86
43450;BME280;29041;42.266;23.110;2022-12-29T12:15:08;96565.19;;;15.54;57.59
43450;BME280;29041;42.266;23.110;2022-12-29T12:21:18;96548.16;;;16.12;55.49
43450;BME280;29041;42.266;23.110;2022-12-29T12:27:13;96552.88;;;16.27;54.39
43450;BME280;29041;42.266;23.110;2022-12-29T12:30:04;96547.13;;;16.16;55.23
43450;BME280;29041;42.266;23.110;2022-12-29T12:36:47;96543.72;;;16.57;55.17
43450;BME280;29041;42.266;23.110;2022-12-29T12:39:47;96543.50;;;16.37;55.04
43450;BME280;29041;42.266;23.110;2022-12-29T12:55:00;96538.72;;;15.72;57.22
43450;BME280;29041;42.266;23.110;2022-12-29T12:58:00;96534.84;;;16.72;54.71
43450;BME280;29041;42.266;23.110;2022-12-29T13:01:08;96537.81;;;16.67;54.39
43450;BME280;29041;42.266;23.110;2022-12-29T13:04:14;96527.38;;;16.04;55.18
43450;BME280;29041;42.266;23.110;2022-12-29T13:07:13;96541.50;;;16.09;55.70
43450;BME280;29041;42.266;23.110;2022-12-29T13:10:25;96537.19;;;15.50;57.11
43450;BME280;29041;42.266;23.110;2022-12-29T13:13:36;96546.97;;;15.76;56.75
43450;BME280;29041;42.266;23.110;2022-12-29T16:56:45;96626.81;;;10.50;79.75
43450;BME280;29041;42.266;23.110;2022-12-29T16:59:36;96631.06;;;10.23;80.55
43450;BME280;29041;42.266;23.110;2022-12-29T17:10:11;96650.00;;;10.46;80.24
43450;BME280;29041;42.266;23.110;2022-12-29T18:10:50;96639.13;;;9.10;88.10
43450;BME280;29041;42.266;23.110;2022-12-29T18:13:38;96651.75;;;8.66;90.32
43450;BME280;29041;42.266;23.110;2022-12-29T18:16:26;96644.75;;;8.70;91.40
43450;BME280;29041;42.266;23.110;2022-12-29T18:19:13;96639.19;;;9.05;88.71
43450;BME280;29041;42.266;23.110;2022-12-29T18:22:00;96637.19;;;8.97;89.62
43450;BME280;29041;42.266;23.110;2022-12-29T18:24:48;96636.41;;;8.53;92.19
43450;BME280;29041;42.266;23.110;2022-12-29T18:27:36;96621.69;;;8.94;89.39
43450;BME280;29041;42.266;23.110;2022-12-29T18:30:23;96630.50;;;9.13;87.84
43450;BME280;29041;42.266;23.110;2022-12-29T18:33:13;96625.59;;;9.01;88.01
43450;BME280;29041;42.266;23.110;2022-12-29T18:36:02;96633.75;;;8.53;91.91
43450;BME280;29041;42.266;23.110;2022-12-29T18:38:50;96633.84;;;8.86;91.44
43450;BME280;29041;42.266;23.110;2022-12-29T18:41:39;96642.31;;;8.93;91.00
43450;BME280;29041;42.266;23.110;2022-12-29T18:44:27;96641.28;;;8.46;92.95
43450;BME280;29041;42.266;23.110;2022-12-29T18:47:15;96647.00;;;9.20;89.57
43450;BME280;29041;42.266;23.110;2022-12-29T18:50:02;96647.03;;;8.58;91.80
43450;BME280;29041;42.266;23.110;2022-12-29T18:52:49;96632.25;;;8.17;94.44
43450;BME280;29041;42.266;23.110;2022-12-29T18:55:37;96649.19;;;9.18;88.50
43450;BME280;29041;42.266;23.110;2022-12-29T18:58:24;96650.69;;;8.67;90.97
43450;BME280;29041;42.266;23.110;2022-12-29T19:01:18;96653.53;;;8.52;91.71
43450;BME280;29041;42.266;23.110;2022-12-29T19:04:06;96661.94;;;8.40;92.01
43450;BME280;29041;42.266;23.110;2022-12-29T19:06:53;96644.97;;;8.55;91.54
43450;BME280;29041;42.266;23.110;2022-12-29T19:09:40;96657.50;;;8.79;89.66
43450;BME280;29041;42.266;23.110;2022-12-29T19:12:28;96653.78;;;8.55;90.22
43450;BME280;29041;42.266;23.110;2022-12-29T19:15:21;96663.38;;;9.00;88.51
43450;BME280;29041;42.266;23.110;2022-12-29T19:18:11;96660.56;;;8.42;91.13
43450;BME280;29041;42.266;23.110;2022-12-29T19:21:00;96664.78;;;8.00;94.40
43450;BME280;29041;42.266;23.110;2022-12-29T19:23:48;96660.84;;;7.63;95.53
43450;BME280;29041;42.266;23.110;2022-12-29T19:26:37;96667.06;;;8.36;93.98
43450;BME280;29041;42.266;23.110;2022-12-29T19:29:25;96663.25;;;8.91;89.26
43450;BME280;29041;42.266;23.110;2022-12-29T19:32:12;96660.72;;;8.56;90.79
43450;BME280;29041;42.266;23.110;2022-12-29T19:35:01;96663.56;;;8.84;89.69
43450;BME280;29041;42.266;23.110;2022-12-29T19:37:48;96655.75;;;8.45;91.13
43450;BME280;29041;42.266;23.110;2022-12-29T19:40:35;96653.16;;;8.83;89.70
43450;BME280;29041;42.266;23.110;2022-12-29T19:43:22;96659.75;;;9.10;87.37
43450;BME280;29041;42.266;23.110;2022-12-29T19:46:13;96663.19;;;8.23;91.30
43450;BME280;29041;42.266;23.110;2022-12-29T19:49:01;96671.75;;;7.67;95.82
43450;BME280;29041;42.266;23.110;2022-12-29T19:51:49;96668.78;;;7.73;95.90
43450;BME280;29041;42.266;23.110;2022-12-29T19:54:37;96673.47;;;7.52;96.93
43450;BME280;29041;42.266;23.110;2022-12-29T19:57:25;96674.44;;;7.32;97.36
43450;BME280;29041;42.266;23.110;2022-12-29T20:00:12;96673.78;;;7.11;100.00
43450;BME280;29041;42.266;23.110;2022-12-29T20:03:01;96673.31;;;7.38;98.83
43450;BME280;29041;42.266;23.110;2022-12-29T20:05:48;96673.41;;;7.62;96.85
43450;BME280;29041;42.266;23.110;2022-12-29T20:08:38;96676.03;;;7.68;96.25
43450;BME280;29041;42.266;23.110;2022-12-29T20:11:25;96670.13;;;8.00;95.11
43450;BME280;29041;42.266;23.110;2022-12-29T20:14:12;96671.13;;;8.58;90.82
43450;BME280;29041;42.266;23.110;2022-12-29T20:17:00;96674.19;;;8.51;90.86
43450;BME280;29041;42.266;23.110;2022-12-29T20:19:47;96676.38;;;8.44;91.12
43450;BME280;29041;42.266;23.110;2022-12-29T20:22:34;96681.66;;;8.25;91.65
43450;BME280;29041;42.266;23.110;2022-12-29T20:25:23;96666.69;;;7.94;93.88
43450;BME280;29041;42.266;23.110;2022-12-29T20:28:10;96665.38;;;8.21;92.58
43450;BME280;29041;42.266;23.110;2022-12-29T20:30:59;96682.03;;;8.13;92.03
43450;BME280;29041;42.266;23.110;2022-12-29T20:33:47;96665.53;;;7.76;93.76
43450;BME280;29041;42.266;23.110;2022-12-29T20:36:37;96679.84;;;7.91;94.36
43450;BME280;29041;42.266;23.110;2022-12-29T20:39:25;96673.97;;;8.42;91.27
43450;BME280;29041;42.266;23.110;2022-12-29T20:42:13;96678.91;;;8.06;92.32
43450;BME280;29041;42.266;23.110;2022-12-29T20:45:01;96673.88;;;8.53;90.54
43450;BME280;29041;42.266;23.110;2022-12-29T20:47:48;96680.66;;;8.69;88.92
43450;BME280;29041;42.266;23.110;2022-12-29T20:50:35;96692.19;;;8.40;88.18
43450;BME280;29041;42.266;23.110;2022-12-29T20:53:23;96686.78;;;8.46;88.92
43450;BME280;29041;42.266;23.110;2022-12-29T20:56:14;96683.28;;;8.21;89.46
43450;BME280;29041;42.266;23.110;2022-12-29T20:59:03;96684.09;;;7.92;91.06
43450;BME280;29041;42.266;23.110;2022-12-29T21:01:52;96681.66;;;7.66;92.96
43450;BME280;29041;42.266;23.110;2022-12-29T21:04:40;96694.44;;;7.40;94.39
43450;BME280;29041;42.266;23.110;2022-12-29T21:07:27;96684.03;;;7.33;95.95
43450;BME280;29041;42.266;23.110;2022-12-29T21:10:15;96683.53;;;7.66;94.46
43450;BME280;29041;42.266;23.110;2022-12-29T21:13:02;96692.81;;;7.39;94.98
43450;BME280;29041;42.266;23.110;2022-12-29T21:15:54;96694.28;;;7.60;94.93
43450;BME280;29041;42.266;23.110;2022-12-29T21:18:42;96706.63;;;7.51;95.11
43450;BME280;29041;42.266;23.110;2022-12-29T21:21:29;96698.53;;;7.61;93.95
43450;BME280;29041;42.266;23.110;2022-12-29T21:24:16;96702.69;;;7.43;94.96
43450;BME280;29041;42.266;23.110;2022-12-29T21:27:09;96699.53;;;7.36;95.02
43450;BME280;29041;42.266;23.110;2022-12-29T21:30:00;96698.13;;;7.78;93.41
43450;BME280;29041;42.266;23.110;2022-12-29T21:32:48;96693.44;;;7.60;93.71
43450;BME280;29041;42.266;23.110;2022-12-29T21:35:36;96693.06;;;7.42;94.47
43450;BME280;29041;42.266;23.110;2022-12-29T21:38:23;96699.44;;;7.46;94.35
43450;BME280;29041;42.266;23.110;2022-12-29T21:41:14;96703.09;;;7.21;95.29
43450;BME280;29041;42.266;23.110;2022-12-29T21:44:02;96701.19;;;7.27;95.48
43450;BME280;29041;42.266;23.110;2022-12-29T21:47:07;96696.63;;;7.27;95.59
43450;BME280;29041;42.266;23.110;2022-12-29T21:49:55;96694.13;;;7.41;95.15
43450;BME280;29041;42.266;23.110;2022-12-29T21:52:42;96692.28;;;7.37;94.14
43450;BME280;29041;42.266;23.110;2022-12-29T21:55:30;96693.22;;;7.17;95.43
43450;BME280;29041;42.266;23.110;2022-12-29T21:58:22;96692.53;;;7.01;95.81
43450;BME280;29041;42.266;23.110;2022-12-29T22:01:27;96685.50;;;7.15;95.90
43450;BME280;29041;42.266;23.110;2022-12-29T22:04:32;96690.09;;;7.04;96.67
43450;BME280;29041;42.266;23.110;2022-12-29T22:07:39;96686.53;;;6.69;98.19
43450;BME280;29041;42.266;23.110;2022-12-29T22:10:45;96688.28;;;6.89;97.32
43450;BME280;29041;42.266;23.110;2022-12-29T22:13:50;96687.22;;;6.90;97.43
43450;BME280;29041;42.266;23.110;2022-12-29T22:16:40;96682.50;;;6.77;97.50
43450;BME280;29041;42.266;23.110;2022-12-29T22:19:27;96681.44;;;6.78;98.43
43450;BME280;29041;42.266;23.110;2022-12-29T22:22:15;96686.84;;;6.52;99.24
43450;BME280;29041;42.266;23.110;2022-12-29T22:25:04;96681.31;;;6.33;100.00
43450;BME280;29041;42.266;23.110;2022-12-29T22:27:52;96676.97;;;6.58;100.00
43450;BME280;29041;42.266;23.110;2022-12-29T22:30:39;96670.53;;;6.69;99.00
43450;BME280;29041;42.266;23.110;2022-12-29T22:33:29;96674.19;;;6.83;98.09
43450;BME280;29041;42.266;23.110;2022-12-29T22:36:16;96661.34;;;6.91;97.34
43450;BME280;29041;42.266;23.110;2022-12-29T22:39:03;96671.31;;;6.70;99.07
43450;BME280;29041;42.266;23.110;2022-12-29T22:41:52;96670.81;;;6.62;98.78
43450;BME280;29041;42.266;23.110;2022-12-29T22:44:39;96663.53;;;6.13;100.00
43450;BME280;29041;42.266;23.110;2022-12-29T22:47:26;96670.47;;;5.88;100.00
43450;BME280;29041;42.266;23.110;2022-12-29T22:50:14;96669.13;;;5.85;100.00
43450;BME280;29041;42.266;23.110;2022-12-29T22:53:01;96671.81;;;5.80;100.00
43450;BME280;29041;42.266;23.110;2022-12-29T22:55:48;96660.03;;;6.12;100.00
43450;BME280;29041;42.266;23.110;2022-12-29T22:58:40;96667.19;;;6.32;100.00
43450;BME280;29041;42.266;23.110;2022-12-29T23:01:27;96670.16;;;6.31;100.00
43450;BME280;29041;42.266;23.110;2022-12-29T23:04:14;96660.31;;;6.16;100.00
43450;BME280;29041;42.266;23.110;2022-12-29T23:07:02;96667.78;;;6.19;100.00
43450;BME280;29041;42.266;23.110;2022-12-29T23:09:49;96656.78;;;6.36;100.00
43450;BME280;29041;42.266;23.110;2022-12-29T23:12:36;96646.47;;;6.09;100.00
43450;BME280;29041;42.266;23.110;2022-12-29T23:15:25;96660.34;;;6.00;100.00
43450;BME280;29041;42.266;23.110;2022-12-29T23:18:12;96664.69;;;6.62;100.00
43450;BME280;29041;42.266;23.110;2022-12-29T23:20:59;96658.91;;;6.39;99.42
43450;BME280;29041;42.266;23.110;2022-12-29T23:23:46;96644.56;;;6.25;100.00
43450;BME280;29041;42.266;23.110;2022-12-29T23:26:42;96654.13;;;6.26;100.00
43450;BME280;29041;42.266;23.110;2022-12-29T23:29:30;96644.84;;;6.18;100.00
43450;BME280;29041;42.266;23.110;2022-12-29T23:32:18;96651.53;;;6.10;100.00
43450;BME280;29041;42.266;23.110;2022-12-29T23:35:07;96655.78;;;5.91;100.00
43450;BME280;29041;42.266;23.110;2022-12-29T23:37:54;96651.56;;;5.69;100.00
43450;BME280;29041;42.266;23.110;2022-12-29T23:40:41;96657.94;;;5.83;100.00
43450;BME280;29041;42.266;23.110;2022-12-29T23:43:28;96658.50;;;5.54;100.00
43450;BME280;29041;42.266;23.110;2022-12-29T23:46:22;96657.97;;;5.73;100.00
43450;BME280;29041;42.266;23.110;2022-12-29T23:49:12;96663.56;;;5.61;100.00
43450;BME280;29041;42.266;23.110;2022-12-29T23:51:59;96655.03;;;5.49;100.00
43450;BME280;29041;42.266;23.110;2022-12-29T23:54:46;96659.31;;;5.45;100.00
43450;BME280;29041;42.266;23.110;2022-12-29T23:57:34;96667.84;;;5.47;100.00
